Archival Weather

Granbury Rgnl

Granbury, Texas (KGDJ)

Report from: Monday, January 29, 2024 12:55 PM UTC
Current time: Tuesday, June 18, 2024 11:41 AM UTC

Current weather – Weather history – Daily summaries
Weather forecast

Temperature1.7°C (35.1°F)
Dew point0.7°C (33.3°F)
Winds Calm
Visibility10 mi. (16.1 km)
Clouds Sky clear
Altimeter30.35 in.Hg (1028 mB)
Relative humidity93 %
Density altitude-2,016 ft. (-614 m)
Remarks Fully automated report
Automated weather observing station with precipitation discriminator
Flight conditions Visual Meteorological Conditions
Raw dataKGDJ 291255Z AUTO 00000KT 10SM CLR 02/01 A3035 RMK AO2 T00170007
An error has occurred. This application may no longer respond until reloaded. Reload 🗙